sensor_id;sensor_type;location;lat;lon;timestamp;P1;durP1;ratioP1;P2;durP2;ratioP2
55090;SDS011;40985;53.180;5.800;2023-04-16T00:02:27;71.07;;;24.75;;
55090;SDS011;40985;53.180;5.800;2023-04-16T00:04:53;78.53;;;25.40;;
55090;SDS011;40985;53.180;5.800;2023-04-16T00:07:19;90.85;;;26.23;;
55090;SDS011;40985;53.180;5.800;2023-04-16T00:09:45;81.07;;;25.65;;
55090;SDS011;40985;53.180;5.800;2023-04-16T00:12:10;68.63;;;23.73;;
55090;SDS011;40985;53.180;5.800;2023-04-16T00:14:36;68.25;;;23.38;;
55090;SDS011;40985;53.180;5.800;2023-04-16T00:17:02;75.25;;;23.38;;
55090;SDS011;40985;53.180;5.800;2023-04-16T00:19:27;70.70;;;22.27;;
55090;SDS011;40985;53.180;5.800;2023-04-16T00:21:53;69.45;;;22.70;;
55090;SDS011;40985;53.180;5.800;2023-04-16T00:24:19;67.38;;;23.75;;
55090;SDS011;40985;53.180;5.800;2023-04-16T00:26:44;58.03;;;20.75;;
55090;SDS011;40985;53.180;5.800;2023-04-16T00:29:10;59.70;;;20.92;;
55090;SDS011;40985;53.180;5.800;2023-04-16T00:31:36;60.88;;;20.58;;
55090;SDS011;40985;53.180;5.800;2023-04-16T00:34:02;60.38;;;21.83;;
55090;SDS011;40985;53.180;5.800;2023-04-16T00:36:28;60.38;;;20.67;;
55090;SDS011;40985;53.180;5.800;2023-04-16T00:38:54;68.07;;;22.02;;
55090;SDS011;40985;53.180;5.800;2023-04-16T00:41:20;52.08;;;20.90;;
55090;SDS011;40985;53.180;5.800;2023-04-16T00:43:47;56.20;;;20.23;;
55090;SDS011;40985;53.180;5.800;2023-04-16T00:46:13;61.80;;;21.25;;
55090;SDS011;40985;53.180;5.800;2023-04-16T00:48:40;52.75;;;19.60;;
55090;SDS011;40985;53.180;5.800;2023-04-16T00:51:08;62.20;;;21.65;;
55090;SDS011;40985;53.180;5.800;2023-04-16T00:53:35;60.17;;;22.00;;
55090;SDS011;40985;53.180;5.800;2023-04-16T00:56:02;60.85;;;22.65;;
55090;SDS011;40985;53.180;5.800;2023-04-16T00:58:29;68.78;;;23.38;;
55090;SDS011;40985;53.180;5.800;2023-04-16T01:00:55;57.30;;;23.08;;
55090;SDS011;40985;53.180;5.800;2023-04-16T01:03:21;59.95;;;22.90;;
55090;SDS011;40985;53.180;5.800;2023-04-16T01:05:47;60.00;;;22.98;;
55090;SDS011;40985;53.180;5.800;2023-04-16T01:08:17;61.17;;;21.10;;
55090;SDS011;40985;53.180;5.800;2023-04-16T01:10:44;51.08;;;21.00;;
55090;SDS011;40985;53.180;5.800;2023-04-16T01:13:10;68.80;;;22.65;;
55090;SDS011;40985;53.180;5.800;2023-04-16T01:15:36;58.20;;;21.00;;
55090;SDS011;40985;53.180;5.800;2023-04-16T01:18:01;67.20;;;24.60;;
55090;SDS011;40985;53.180;5.800;2023-04-16T01:20:27;57.85;;;21.98;;
55090;SDS011;40985;53.180;5.800;2023-04-16T01:22:53;68.55;;;24.17;;
55090;SDS011;40985;53.180;5.800;2023-04-16T01:25:19;68.15;;;26.83;;
55090;SDS011;40985;53.180;5.800;2023-04-16T01:27:48;73.95;;;28.20;;
55090;SDS011;40985;53.180;5.800;2023-04-16T01:30:14;68.82;;;28.35;;
55090;SDS011;40985;53.180;5.800;2023-04-16T01:32:40;84.55;;;30.23;;
55090;SDS011;40985;53.180;5.800;2023-04-16T01:35:05;89.20;;;28.23;;
55090;SDS011;40985;53.180;5.800;2023-04-16T01:37:31;88.40;;;28.73;;
55090;SDS011;40985;53.180;5.800;2023-04-16T01:39:57;77.45;;;28.00;;
55090;SDS011;40985;53.180;5.800;2023-04-16T01:42:23;76.90;;;27.45;;
55090;SDS011;40985;53.180;5.800;2023-04-16T01:44:48;81.88;;;27.98;;
55090;SDS011;40985;53.180;5.800;2023-04-16T01:47:14;74.28;;;26.95;;
55090;SDS011;40985;53.180;5.800;2023-04-16T01:49:40;82.95;;;29.33;;
55090;SDS011;40985;53.180;5.800;2023-04-16T01:52:06;83.65;;;29.52;;
55090;SDS011;40985;53.180;5.800;2023-04-16T01:54:32;85.53;;;29.67;;
55090;SDS011;40985;53.180;5.800;2023-04-16T01:56:58;87.72;;;31.98;;
55090;SDS011;40985;53.180;5.800;2023-04-16T01:59:24;82.05;;;28.23;;
55090;SDS011;40985;53.180;5.800;2023-04-16T02:01:49;90.47;;;30.08;;
55090;SDS011;40985;53.180;5.800;2023-04-16T02:04:15;87.65;;;27.95;;
55090;SDS011;40985;53.180;5.800;2023-04-16T02:06:41;79.93;;;31.38;;
55090;SDS011;40985;53.180;5.800;2023-04-16T02:09:06;88.70;;;29.65;;
55090;SDS011;40985;53.180;5.800;2023-04-16T02:11:32;77.88;;;27.42;;
55090;SDS011;40985;53.180;5.800;2023-04-16T02:13:58;99.05;;;31.65;;
55090;SDS011;40985;53.180;5.800;2023-04-16T02:16:24;91.82;;;29.77;;
55090;SDS011;40985;53.180;5.800;2023-04-16T02:18:50;90.95;;;31.15;;
55090;SDS011;40985;53.180;5.800;2023-04-16T02:21:16;90.47;;;31.77;;
55090;SDS011;40985;53.180;5.800;2023-04-16T02:23:45;88.75;;;30.13;;
55090;SDS011;40985;53.180;5.800;2023-04-16T02:26:15;101.35;;;32.80;;
55090;SDS011;40985;53.180;5.800;2023-04-16T02:28:41;96.75;;;32.20;;
55090;SDS011;40985;53.180;5.800;2023-04-16T02:31:07;104.40;;;32.90;;
55090;SDS011;40985;53.180;5.800;2023-04-16T02:33:32;109.25;;;34.35;;
55090;SDS011;40985;53.180;5.800;2023-04-16T02:35:59;109.60;;;34.95;;
55090;SDS011;40985;53.180;5.800;2023-04-16T02:38:25;98.47;;;33.97;;
55090;SDS011;40985;53.180;5.800;2023-04-16T02:40:51;104.65;;;34.15;;
55090;SDS011;40985;53.180;5.800;2023-04-16T02:43:16;86.38;;;30.80;;
55090;SDS011;40985;53.180;5.800;2023-04-16T02:45:42;89.78;;;31.08;;
55090;SDS011;40985;53.180;5.800;2023-04-16T02:48:08;99.57;;;32.85;;
55090;SDS011;40985;53.180;5.800;2023-04-16T02:50:34;97.22;;;31.98;;
55090;SDS011;40985;53.180;5.800;2023-04-16T02:53:00;110.88;;;35.85;;
55090;SDS011;40985;53.180;5.800;2023-04-16T02:55:25;97.75;;;33.35;;
55090;SDS011;40985;53.180;5.800;2023-04-16T02:57:53;92.35;;;32.40;;
55090;SDS011;40985;53.180;5.800;2023-04-16T03:00:19;113.88;;;36.63;;
55090;SDS011;40985;53.180;5.800;2023-04-16T03:02:45;104.47;;;35.67;;
55090;SDS011;40985;53.180;5.800;2023-04-16T03:05:11;115.00;;;38.15;;
55090;SDS011;40985;53.180;5.800;2023-04-16T03:07:36;107.47;;;37.33;;
55090;SDS011;40985;53.180;5.800;2023-04-16T03:10:05;106.07;;;39.03;;
55090;SDS011;40985;53.180;5.800;2023-04-16T03:12:34;110.07;;;37.72;;
55090;SDS011;40985;53.180;5.800;2023-04-16T03:15:00;119.15;;;40.58;;
55090;SDS011;40985;53.180;5.800;2023-04-16T03:17:26;123.15;;;40.40;;
55090;SDS011;40985;53.180;5.800;2023-04-16T03:19:52;106.05;;;39.92;;
55090;SDS011;40985;53.180;5.800;2023-04-16T03:22:17;104.35;;;38.92;;
55090;SDS011;40985;53.180;5.800;2023-04-16T03:24:43;118.20;;;42.50;;
55090;SDS011;40985;53.180;5.800;2023-04-16T03:27:09;103.68;;;40.53;;
55090;SDS011;40985;53.180;5.800;2023-04-16T03:29:35;114.50;;;41.03;;
55090;SDS011;40985;53.180;5.800;2023-04-16T03:32:02;109.70;;;39.05;;
55090;SDS011;40985;53.180;5.800;2023-04-16T03:34:28;111.30;;;39.35;;
55090;SDS011;40985;53.180;5.800;2023-04-16T03:36:53;113.50;;;38.20;;
55090;SDS011;40985;53.180;5.800;2023-04-16T03:39:19;113.93;;;39.60;;
55090;SDS011;40985;53.180;5.800;2023-04-16T03:41:48;108.63;;;39.17;;
55090;SDS011;40985;53.180;5.800;2023-04-16T03:44:13;112.53;;;39.05;;
55090;SDS011;40985;53.180;5.800;2023-04-16T03:46:39;106.90;;;39.22;;
55090;SDS011;40985;53.180;5.800;2023-04-16T03:49:05;110.90;;;36.70;;
55090;SDS011;40985;53.180;5.800;2023-04-16T03:51:32;103.00;;;36.50;;
55090;SDS011;40985;53.180;5.800;2023-04-16T03:53:57;109.40;;;36.72;;
55090;SDS011;40985;53.180;5.800;2023-04-16T03:56:23;111.97;;;37.08;;
55090;SDS011;40985;53.180;5.800;2023-04-16T03:58:49;113.18;;;36.92;;
55090;SDS011;40985;53.180;5.800;2023-04-16T04:01:15;101.22;;;36.08;;
55090;SDS011;40985;53.180;5.800;2023-04-16T04:03:40;101.38;;;35.10;;
55090;SDS011;40985;53.180;5.800;2023-04-16T04:06:07;96.10;;;33.53;;
55090;SDS011;40985;53.180;5.800;2023-04-16T04:08:33;91.93;;;30.95;;
55090;SDS011;40985;53.180;5.800;2023-04-16T04:10:59;81.93;;;29.67;;
55090;SDS011;40985;53.180;5.800;2023-04-16T04:13:25;74.75;;;31.98;;
55090;SDS011;40985;53.180;5.800;2023-04-16T04:15:50;93.97;;;31.70;;
55090;SDS011;40985;53.180;5.800;2023-04-16T04:18:16;90.90;;;33.65;;
55090;SDS011;40985;53.180;5.800;2023-04-16T04:20:42;94.53;;;34.08;;
55090;SDS011;40985;53.180;5.800;2023-04-16T04:23:08;102.13;;;34.25;;
55090;SDS011;40985;53.180;5.800;2023-04-16T04:25:34;99.97;;;32.72;;
55090;SDS011;40985;53.180;5.800;2023-04-16T04:28:00;90.93;;;31.75;;
55090;SDS011;40985;53.180;5.800;2023-04-16T04:30:25;94.25;;;33.38;;
55090;SDS011;40985;53.180;5.800;2023-04-16T04:32:51;95.50;;;32.75;;
55090;SDS011;40985;53.180;5.800;2023-04-16T04:35:16;88.45;;;29.75;;
55090;SDS011;40985;53.180;5.800;2023-04-16T04:37:42;79.00;;;30.40;;
55090;SDS011;40985;53.180;5.800;2023-04-16T04:40:08;88.68;;;32.20;;
55090;SDS011;40985;53.180;5.800;2023-04-16T04:42:34;87.88;;;30.75;;
55090;SDS011;40985;53.180;5.800;2023-04-16T04:45:00;84.82;;;30.35;;
55090;SDS011;40985;53.180;5.800;2023-04-16T04:47:26;93.72;;;29.00;;
55090;SDS011;40985;53.180;5.800;2023-04-16T04:49:51;90.93;;;28.33;;
55090;SDS011;40985;53.180;5.800;2023-04-16T04:52:17;85.93;;;27.40;;
55090;SDS011;40985;53.180;5.800;2023-04-16T04:54:44;83.22;;;25.23;;
55090;SDS011;40985;53.180;5.800;2023-04-16T04:57:10;84.03;;;23.95;;
55090;SDS011;40985;53.180;5.800;2023-04-16T04:59:36;81.70;;;25.38;;
55090;SDS011;40985;53.180;5.800;2023-04-16T05:02:02;77.10;;;22.65;;
55090;SDS011;40985;53.180;5.800;2023-04-16T05:04:28;80.22;;;22.17;;
55090;SDS011;40985;53.180;5.800;2023-04-16T05:06:54;74.95;;;21.85;;
55090;SDS011;40985;53.180;5.800;2023-04-16T05:09:20;79.07;;;22.17;;
55090;SDS011;40985;53.180;5.800;2023-04-16T05:11:46;66.10;;;22.27;;
55090;SDS011;40985;53.180;5.800;2023-04-16T05:14:11;75.28;;;23.50;;
55090;SDS011;40985;53.180;5.800;2023-04-16T05:16:37;80.35;;;23.00;;
55090;SDS011;40985;53.180;5.800;2023-04-16T05:19:03;83.63;;;25.35;;
55090;SDS011;40985;53.180;5.800;2023-04-16T05:21:28;79.18;;;26.58;;
55090;SDS011;40985;53.180;5.800;2023-04-16T05:23:54;81.55;;;24.25;;
55090;SDS011;40985;53.180;5.800;2023-04-16T05:26:20;78.35;;;23.08;;
55090;SDS011;40985;53.180;5.800;2023-04-16T05:28:47;84.10;;;23.95;;
55090;SDS011;40985;53.180;5.800;2023-04-16T05:31:12;78.40;;;21.67;;
55090;SDS011;40985;53.180;5.800;2023-04-16T05:33:38;70.72;;;22.50;;
55090;SDS011;40985;53.180;5.800;2023-04-16T05:36:04;82.63;;;23.77;;
55090;SDS011;40985;53.180;5.800;2023-04-16T05:38:29;86.03;;;25.50;;
55090;SDS011;40985;53.180;5.800;2023-04-16T05:40:56;81.78;;;26.23;;
55090;SDS011;40985;53.180;5.800;2023-04-16T05:43:22;78.22;;;26.95;;
55090;SDS011;40985;53.180;5.800;2023-04-16T05:45:48;80.13;;;27.70;;
55090;SDS011;40985;53.180;5.800;2023-04-16T05:48:13;81.18;;;27.58;;
55090;SDS011;40985;53.180;5.800;2023-04-16T05:50:39;85.22;;;28.13;;
55090;SDS011;40985;53.180;5.800;2023-04-16T05:53:05;74.72;;;25.52;;
55090;SDS011;40985;53.180;5.800;2023-04-16T05:55:32;78.55;;;26.00;;
55090;SDS011;40985;53.180;5.800;2023-04-16T05:57:59;69.03;;;24.50;;
55090;SDS011;40985;53.180;5.800;2023-04-16T06:00:25;77.30;;;24.23;;
55090;SDS011;40985;53.180;5.800;2023-04-16T06:02:52;70.43;;;24.40;;
55090;SDS011;40985;53.180;5.800;2023-04-16T06:05:17;70.47;;;24.67;;
55090;SDS011;40985;53.180;5.800;2023-04-16T06:07:43;79.78;;;26.42;;
55090;SDS011;40985;53.180;5.800;2023-04-16T06:10:09;73.30;;;23.23;;
55090;SDS011;40985;53.180;5.800;2023-04-16T06:12:36;78.88;;;23.83;;
55090;SDS011;40985;53.180;5.800;2023-04-16T06:15:02;76.50;;;26.27;;
55090;SDS011;40985;53.180;5.800;2023-04-16T06:17:28;69.60;;;25.55;;
55090;SDS011;40985;53.180;5.800;2023-04-16T06:19:54;68.28;;;24.75;;
55090;SDS011;40985;53.180;5.800;2023-04-16T06:22:20;77.05;;;24.70;;
55090;SDS011;40985;53.180;5.800;2023-04-16T06:24:46;76.40;;;24.05;;
55090;SDS011;40985;53.180;5.800;2023-04-16T06:27:11;75.95;;;23.85;;
55090;SDS011;40985;53.180;5.800;2023-04-16T06:29:37;75.13;;;23.13;;
55090;SDS011;40985;53.180;5.800;2023-04-16T06:32:03;55.50;;;21.40;;
55090;SDS011;40985;53.180;5.800;2023-04-16T06:34:28;63.70;;;21.63;;
55090;SDS011;40985;53.180;5.800;2023-04-16T06:36:55;55.17;;;20.83;;
55090;SDS011;40985;53.180;5.800;2023-04-16T06:39:20;70.97;;;25.20;;
55090;SDS011;40985;53.180;5.800;2023-04-16T06:41:46;66.75;;;24.52;;
55090;SDS011;40985;53.180;5.800;2023-04-16T06:44:12;62.47;;;21.42;;
55090;SDS011;40985;53.180;5.800;2023-04-16T06:46:39;60.90;;;23.48;;
55090;SDS011;40985;53.180;5.800;2023-04-16T06:49:05;54.28;;;23.00;;
55090;SDS011;40985;53.180;5.800;2023-04-16T06:51:31;56.67;;;23.48;;
55090;SDS011;40985;53.180;5.800;2023-04-16T06:53:57;53.83;;;19.77;;
55090;SDS011;40985;53.180;5.800;2023-04-16T06:56:23;58.65;;;19.83;;
55090;SDS011;40985;53.180;5.800;2023-04-16T06:58:49;63.53;;;21.38;;
55090;SDS011;40985;53.180;5.800;2023-04-16T07:01:15;62.58;;;20.55;;
55090;SDS011;40985;53.180;5.800;2023-04-16T07:03:41;58.13;;;20.98;;
55090;SDS011;40985;53.180;5.800;2023-04-16T07:06:07;61.95;;;21.33;;
55090;SDS011;40985;53.180;5.800;2023-04-16T07:08:33;51.35;;;20.30;;
55090;SDS011;40985;53.180;5.800;2023-04-16T07:10:59;47.33;;;18.15;;
55090;SDS011;40985;53.180;5.800;2023-04-16T07:13:24;55.53;;;18.05;;
55090;SDS011;40985;53.180;5.800;2023-04-16T07:15:50;44.85;;;17.38;;
55090;SDS011;40985;53.180;5.800;2023-04-16T07:18:16;48.30;;;17.73;;
55090;SDS011;40985;53.180;5.800;2023-04-16T07:20:41;52.38;;;17.45;;
55090;SDS011;40985;53.180;5.800;2023-04-16T07:23:07;49.40;;;17.48;;
55090;SDS011;40985;53.180;5.800;2023-04-16T07:25:33;41.50;;;16.60;;
55090;SDS011;40985;53.180;5.800;2023-04-16T07:27:58;44.50;;;18.25;;
55090;SDS011;40985;53.180;5.800;2023-04-16T07:30:24;46.25;;;18.13;;
55090;SDS011;40985;53.180;5.800;2023-04-16T07:32:56;50.38;;;18.30;;
55090;SDS011;40985;53.180;5.800;2023-04-16T07:35:22;54.92;;;17.70;;
55090;SDS011;40985;53.180;5.800;2023-04-16T07:37:47;47.35;;;17.48;;
55090;SDS011;40985;53.180;5.800;2023-04-16T07:40:13;55.42;;;18.90;;
55090;SDS011;40985;53.180;5.800;2023-04-16T07:42:39;55.55;;;18.48;;
55090;SDS011;40985;53.180;5.800;2023-04-16T07:45:05;54.25;;;17.30;;
55090;SDS011;40985;53.180;5.800;2023-04-16T07:47:31;43.83;;;17.75;;
55090;SDS011;40985;53.180;5.800;2023-04-16T07:49:57;48.75;;;18.13;;
55090;SDS011;40985;53.180;5.800;2023-04-16T07:52:22;50.67;;;17.40;;
55090;SDS011;40985;53.180;5.800;2023-04-16T07:54:48;48.67;;;17.50;;
55090;SDS011;40985;53.180;5.800;2023-04-16T07:57:15;55.95;;;17.90;;
55090;SDS011;40985;53.180;5.800;2023-04-16T07:59:41;50.50;;;18.90;;
55090;SDS011;40985;53.180;5.800;2023-04-16T08:02:07;45.15;;;18.10;;
55090;SDS011;40985;53.180;5.800;2023-04-16T08:04:37;50.58;;;17.92;;
55090;SDS011;40985;53.180;5.800;2023-04-16T08:07:02;48.88;;;18.10;;
55090;SDS011;40985;53.180;5.800;2023-04-16T08:09:28;52.22;;;18.35;;
55090;SDS011;40985;53.180;5.800;2023-04-16T08:11:55;45.78;;;16.80;;
55090;SDS011;40985;53.180;5.800;2023-04-16T08:14:21;50.95;;;18.27;;
55090;SDS011;40985;53.180;5.800;2023-04-16T08:16:47;42.95;;;16.70;;
55090;SDS011;40985;53.180;5.800;2023-04-16T08:19:13;43.95;;;17.15;;
55090;SDS011;40985;53.180;5.800;2023-04-16T08:21:39;47.45;;;15.80;;
55090;SDS011;40985;53.180;5.800;2023-04-16T08:24:04;51.58;;;17.63;;
55090;SDS011;40985;53.180;5.800;2023-04-16T08:26:30;50.33;;;17.70;;
55090;SDS011;40985;53.180;5.800;2023-04-16T08:28:56;53.45;;;18.85;;
55090;SDS011;40985;53.180;5.800;2023-04-16T08:31:22;47.25;;;16.52;;
55090;SDS011;40985;53.180;5.800;2023-04-16T08:33:47;47.35;;;18.25;;
55090;SDS011;40985;53.180;5.800;2023-04-16T08:36:13;58.53;;;17.17;;
55090;SDS011;40985;53.180;5.800;2023-04-16T08:38:39;49.33;;;17.40;;
55090;SDS011;40985;53.180;5.800;2023-04-16T08:41:05;49.78;;;15.57;;
55090;SDS011;40985;53.180;5.800;2023-04-16T08:43:36;39.25;;;15.82;;
55090;SDS011;40985;53.180;5.800;2023-04-16T08:46:06;34.15;;;16.15;;
55090;SDS011;40985;53.180;5.800;2023-04-16T08:48:33;49.53;;;17.33;;
55090;SDS011;40985;53.180;5.800;2023-04-16T08:51:02;46.92;;;15.82;;
55090;SDS011;40985;53.180;5.800;2023-04-16T08:53:34;48.17;;;17.27;;
55090;SDS011;40985;53.180;5.800;2023-04-16T08:56:06;43.72;;;15.32;;
55090;SDS011;40985;53.180;5.800;2023-04-16T08:58:35;58.53;;;17.00;;
55090;SDS011;40985;53.180;5.800;2023-04-16T09:01:02;49.25;;;16.55;;
55090;SDS011;40985;53.180;5.800;2023-04-16T09:03:32;45.58;;;16.60;;
55090;SDS011;40985;53.180;5.800;2023-04-16T09:05:58;49.17;;;16.42;;
55090;SDS011;40985;53.180;5.800;2023-04-16T09:08:26;45.65;;;16.42;;
55090;SDS011;40985;53.180;5.800;2023-04-16T09:10:53;41.28;;;16.67;;
55090;SDS011;40985;53.180;5.800;2023-04-16T09:13:20;47.63;;;18.00;;
55090;SDS011;40985;53.180;5.800;2023-04-16T09:15:50;51.20;;;16.42;;
55090;SDS011;40985;53.180;5.800;2023-04-16T09:18:21;41.72;;;15.40;;
55090;SDS011;40985;53.180;5.800;2023-04-16T09:20:47;47.53;;;16.00;;
55090;SDS011;40985;53.180;5.800;2023-04-16T09:23:14;47.40;;;17.52;;
55090;SDS011;40985;53.180;5.800;2023-04-16T09:25:40;41.58;;;15.63;;
55090;SDS011;40985;53.180;5.800;2023-04-16T09:28:05;32.08;;;14.93;;
55090;SDS011;40985;53.180;5.800;2023-04-16T09:30:31;39.45;;;15.82;;
55090;SDS011;40985;53.180;5.800;2023-04-16T09:33:17;26.13;;;13.75;;
55090;SDS011;40985;53.180;5.800;2023-04-16T09:35:50;35.83;;;15.00;;
55090;SDS011;40985;53.180;5.800;2023-04-16T09:38:17;31.25;;;15.02;;
55090;SDS011;40985;53.180;5.800;2023-04-16T09:40:43;34.53;;;14.57;;
55090;SDS011;40985;53.180;5.800;2023-04-16T09:43:17;36.75;;;13.82;;
55090;SDS011;40985;53.180;5.800;2023-04-16T09:45:50;44.92;;;14.82;;
55090;SDS011;40985;53.180;5.800;2023-04-16T09:48:34;34.88;;;14.63;;
55090;SDS011;40985;53.180;5.800;2023-04-16T09:51:00;33.35;;;14.63;;
55090;SDS011;40985;53.180;5.800;2023-04-16T09:53:30;42.92;;;17.67;;
55090;SDS011;40985;53.180;5.800;2023-04-16T09:55:56;30.55;;;13.55;;
55090;SDS011;40985;53.180;5.800;2023-04-16T09:58:23;37.97;;;14.25;;
55090;SDS011;40985;53.180;5.800;2023-04-16T10:01:04;35.40;;;15.35;;
55090;SDS011;40985;53.180;5.800;2023-04-16T10:03:35;33.75;;;14.45;;
55090;SDS011;40985;53.180;5.800;2023-04-16T10:06:15;36.97;;;15.48;;
55090;SDS011;40985;53.180;5.800;2023-04-16T10:08:49;38.88;;;15.68;;
55090;SDS011;40985;53.180;5.800;2023-04-16T10:11:17;37.83;;;15.00;;
55090;SDS011;40985;53.180;5.800;2023-04-16T10:13:44;37.22;;;14.80;;
55090;SDS011;40985;53.180;5.800;2023-04-16T10:16:10;38.67;;;16.02;;
55090;SDS011;40985;53.180;5.800;2023-04-16T10:18:37;40.40;;;15.30;;
55090;SDS011;40985;53.180;5.800;2023-04-16T10:21:04;41.95;;;16.23;;
55090;SDS011;40985;53.180;5.800;2023-04-16T10:23:33;45.53;;;18.00;;
55090;SDS011;40985;53.180;5.800;2023-04-16T10:25:59;46.08;;;16.40;;
55090;SDS011;40985;53.180;5.800;2023-04-16T10:28:26;34.85;;;16.25;;
55090;SDS011;40985;53.180;5.800;2023-04-16T10:30:53;42.72;;;17.73;;
55090;SDS011;40985;53.180;5.800;2023-04-16T10:33:22;35.78;;;15.63;;
55090;SDS011;40985;53.180;5.800;2023-04-16T10:35:51;35.83;;;15.15;;
55090;SDS011;40985;53.180;5.800;2023-04-16T10:38:30;36.53;;;14.95;;
55090;SDS011;40985;53.180;5.800;2023-04-16T10:40:58;33.78;;;16.60;;
55090;SDS011;40985;53.180;5.800;2023-04-16T10:43:26;27.65;;;16.52;;
55090;SDS011;40985;53.180;5.800;2023-04-16T10:45:53;35.95;;;17.67;;
55090;SDS011;40985;53.180;5.800;2023-04-16T10:48:19;36.63;;;17.42;;
55090;SDS011;40985;53.180;5.800;2023-04-16T10:50:58;30.45;;;16.80;;
55090;SDS011;40985;53.180;5.800;2023-04-16T10:53:26;31.20;;;17.23;;
55090;SDS011;40985;53.180;5.800;2023-04-16T10:58:36;37.17;;;17.40;;
55090;SDS011;40985;53.180;5.800;2023-04-16T11:01:06;36.90;;;17.10;;
55090;SDS011;40985;53.180;5.800;2023-04-16T11:03:40;37.38;;;18.58;;
55090;SDS011;40985;53.180;5.800;2023-04-16T11:06:11;32.13;;;15.35;;
55090;SDS011;40985;53.180;5.800;2023-04-16T11:11:08;38.53;;;17.35;;
55090;SDS011;40985;53.180;5.800;2023-04-16T11:13:35;32.15;;;16.48;;
55090;SDS011;40985;53.180;5.800;2023-04-16T11:16:02;35.42;;;17.25;;
55090;SDS011;40985;53.180;5.800;2023-04-16T11:18:28;33.88;;;15.30;;
55090;SDS011;40985;53.180;5.800;2023-04-16T11:20:57;38.20;;;16.38;;
55090;SDS011;40985;53.180;5.800;2023-04-16T11:23:26;32.92;;;14.43;;
55090;SDS011;40985;53.180;5.800;2023-04-16T11:25:52;34.00;;;16.10;;
55090;SDS011;40985;53.180;5.800;2023-04-16T11:28:30;39.95;;;15.80;;
55090;SDS011;40985;53.180;5.800;2023-04-16T11:30:57;38.22;;;16.13;;
55090;SDS011;40985;53.180;5.800;2023-04-16T11:33:23;35.60;;;16.13;;
55090;SDS011;40985;53.180;5.800;2023-04-16T11:35:56;36.92;;;16.05;;
55090;SDS011;40985;53.180;5.800;2023-04-16T11:38:31;32.72;;;15.32;;
55090;SDS011;40985;53.180;5.800;2023-04-16T11:41:00;36.00;;;15.55;;
55090;SDS011;40985;53.180;5.800;2023-04-16T11:43:26;35.65;;;17.40;;
55090;SDS011;40985;53.180;5.800;2023-04-16T11:45:56;37.10;;;16.80;;
55090;SDS011;40985;53.180;5.800;2023-04-16T11:48:22;25.33;;;17.05;;
55090;SDS011;40985;53.180;5.800;2023-04-16T11:50:57;29.23;;;16.63;;
55090;SDS011;40985;53.180;5.800;2023-04-16T11:53:23;25.88;;;15.68;;
55090;SDS011;40985;53.180;5.800;2023-04-16T11:55:49;28.67;;;17.05;;
55090;SDS011;40985;53.180;5.800;2023-04-16T11:58:15;31.48;;;16.35;;
55090;SDS011;40985;53.180;5.800;2023-04-16T12:00:41;26.30;;;15.75;;
55090;SDS011;40985;53.180;5.800;2023-04-16T12:03:09;31.10;;;17.55;;
55090;SDS011;40985;53.180;5.800;2023-04-16T12:05:35;29.33;;;17.55;;
55090;SDS011;40985;53.180;5.800;2023-04-16T12:08:04;41.63;;;18.33;;
55090;SDS011;40985;53.180;5.800;2023-04-16T12:10:32;35.83;;;18.00;;
55090;SDS011;40985;53.180;5.800;2023-04-16T12:13:12;33.90;;;16.38;;
55090;SDS011;40985;53.180;5.800;2023-04-16T12:15:54;30.48;;;17.05;;
55090;SDS011;40985;53.180;5.800;2023-04-16T12:18:21;30.42;;;17.08;;
55090;SDS011;40985;53.180;5.800;2023-04-16T12:20:48;25.00;;;15.73;;
55090;SDS011;40985;53.180;5.800;2023-04-16T12:23:24;28.48;;;15.90;;
55090;SDS011;40985;53.180;5.800;2023-04-16T12:25:55;29.42;;;15.38;;
55090;SDS011;40985;53.180;5.800;2023-04-16T12:28:35;27.40;;;15.60;;
55090;SDS011;40985;53.180;5.800;2023-04-16T12:31:05;25.85;;;15.63;;
55090;SDS011;40985;53.180;5.800;2023-04-16T12:33:31;29.73;;;15.55;;
55090;SDS011;40985;53.180;5.800;2023-04-16T12:35:57;25.20;;;14.55;;
55090;SDS011;40985;53.180;5.800;2023-04-16T12:38:22;30.42;;;15.43;;
55090;SDS011;40985;53.180;5.800;2023-04-16T12:40:49;19.42;;;15.20;;
55090;SDS011;40985;53.180;5.800;2023-04-16T12:43:15;22.80;;;14.50;;
55090;SDS011;40985;53.180;5.800;2023-04-16T12:45:41;23.85;;;15.75;;
55090;SDS011;40985;53.180;5.800;2023-04-16T12:48:06;24.90;;;15.73;;
55090;SDS011;40985;53.180;5.800;2023-04-16T12:50:32;25.00;;;16.23;;
55090;SDS011;40985;53.180;5.800;2023-04-16T12:53:01;27.55;;;17.70;;
55090;SDS011;40985;53.180;5.800;2023-04-16T12:55:27;28.90;;;16.52;;
55090;SDS011;40985;53.180;5.800;2023-04-16T12:57:53;26.70;;;16.48;;
55090;SDS011;40985;53.180;5.800;2023-04-16T13:00:19;28.50;;;17.60;;
55090;SDS011;40985;53.180;5.800;2023-04-16T13:02:44;25.20;;;16.30;;
55090;SDS011;40985;53.180;5.800;2023-04-16T13:05:10;30.17;;;16.63;;
55090;SDS011;40985;53.180;5.800;2023-04-16T13:07:41;24.80;;;16.00;;
55090;SDS011;40985;53.180;5.800;2023-04-16T13:10:07;28.73;;;17.42;;
55090;SDS011;40985;53.180;5.800;2023-04-16T13:12:33;26.15;;;17.58;;
55090;SDS011;40985;53.180;5.800;2023-04-16T13:14:59;31.52;;;17.13;;
55090;SDS011;40985;53.180;5.800;2023-04-16T13:17:25;27.00;;;16.83;;
55090;SDS011;40985;53.180;5.800;2023-04-16T13:19:51;28.88;;;17.45;;
55090;SDS011;40985;53.180;5.800;2023-04-16T13:22:17;27.25;;;16.80;;
55090;SDS011;40985;53.180;5.800;2023-04-16T13:24:43;29.15;;;17.13;;
55090;SDS011;40985;53.180;5.800;2023-04-16T13:27:08;30.23;;;16.23;;
55090;SDS011;40985;53.180;5.800;2023-04-16T13:29:35;26.50;;;15.55;;
55090;SDS011;40985;53.180;5.800;2023-04-16T13:32:01;26.27;;;17.00;;
55090;SDS011;40985;53.180;5.800;2023-04-16T13:34:27;36.45;;;18.77;;
55090;SDS011;40985;53.180;5.800;2023-04-16T13:36:53;30.13;;;16.67;;
55090;SDS011;40985;53.180;5.800;2023-04-16T13:39:18;25.63;;;15.80;;
55090;SDS011;40985;53.180;5.800;2023-04-16T13:41:45;22.30;;;15.82;;
55090;SDS011;40985;53.180;5.800;2023-04-16T13:44:12;25.05;;;16.23;;
55090;SDS011;40985;53.180;5.800;2023-04-16T13:46:38;28.25;;;16.40;;
55090;SDS011;40985;53.180;5.800;2023-04-16T13:49:04;26.75;;;15.38;;
55090;SDS011;40985;53.180;5.800;2023-04-16T13:51:30;27.33;;;15.38;;
55090;SDS011;40985;53.180;5.800;2023-04-16T13:53:56;25.63;;;16.75;;
55090;SDS011;40985;53.180;5.800;2023-04-16T13:56:22;31.50;;;18.85;;
55090;SDS011;40985;53.180;5.800;2023-04-16T13:58:48;26.10;;;16.15;;
55090;SDS011;40985;53.180;5.800;2023-04-16T14:01:14;26.85;;;17.52;;
55090;SDS011;40985;53.180;5.800;2023-04-16T14:03:41;32.75;;;16.67;;
55090;SDS011;40985;53.180;5.800;2023-04-16T14:06:10;26.38;;;17.02;;
55090;SDS011;40985;53.180;5.800;2023-04-16T14:08:35;24.65;;;16.58;;
55090;SDS011;40985;53.180;5.800;2023-04-16T14:11:02;30.85;;;17.95;;
55090;SDS011;40985;53.180;5.800;2023-04-16T14:13:29;29.80;;;17.63;;
55090;SDS011;40985;53.180;5.800;2023-04-16T14:15:55;27.90;;;16.70;;
55090;SDS011;40985;53.180;5.800;2023-04-16T14:18:21;27.95;;;17.50;;
55090;SDS011;40985;53.180;5.800;2023-04-16T14:20:47;24.42;;;16.67;;
55090;SDS011;40985;53.180;5.800;2023-04-16T14:23:12;30.20;;;17.50;;
55090;SDS011;40985;53.180;5.800;2023-04-16T14:25:39;30.23;;;18.27;;